sensor_id;sensor_type;location;lat;lon;timestamp;temperature;humidity
12477;DHT22;6303;51.504;6.300;2022-09-09T00:00:37;23.20;66.00
12477;DHT22;6303;51.504;6.300;2022-09-09T00:03:12;23.10;66.90
12477;DHT22;6303;51.504;6.300;2022-09-09T00:05:45;23.00;66.90
12477;DHT22;6303;51.504;6.300;2022-09-09T00:08:20;22.80;67.70
12477;DHT22;6303;51.504;6.300;2022-09-09T00:10:51;22.70;69.10
12477;DHT22;6303;51.504;6.300;2022-09-09T00:13:26;22.50;69.30
12477;DHT22;6303;51.504;6.300;2022-09-09T00:15:59;22.50;69.60
12477;DHT22;6303;51.504;6.300;2022-09-09T00:18:30;22.80;68.60
12477;DHT22;6303;51.504;6.300;2022-09-09T00:21:04;23.00;67.90
12477;DHT22;6303;51.504;6.300;2022-09-09T00:23:37;22.90;67.90
12477;DHT22;6303;51.504;6.300;2022-09-09T00:26:09;22.80;68.20
12477;DHT22;6303;51.504;6.300;2022-09-09T00:28:41;22.70;68.60
12477;DHT22;6303;51.504;6.300;2022-09-09T00:31:14;22.80;69.30
12477;DHT22;6303;51.504;6.300;2022-09-09T00:33:44;23.00;67.80
12477;DHT22;6303;51.504;6.300;2022-09-09T00:36:13;23.20;66.80
12477;DHT22;6303;51.504;6.300;2022-09-09T00:38:46;23.40;65.60
12477;DHT22;6303;51.504;6.300;2022-09-09T00:41:21;23.30;65.80
12477;DHT22;6303;51.504;6.300;2022-09-09T00:43:56;23.30;65.90
12477;DHT22;6303;51.504;6.300;2022-09-09T00:46:46;23.20;66.00
12477;DHT22;6303;51.504;6.300;2022-09-09T00:49:27;23.10;66.20
12477;DHT22;6303;51.504;6.300;2022-09-09T00:52:08;22.90;66.70
12477;DHT22;6303;51.504;6.300;2022-09-09T00:54:48;22.80;67.30
12477;DHT22;6303;51.504;6.300;2022-09-09T00:57:26;22.60;68.20
12477;DHT22;6303;51.504;6.300;2022-09-09T01:00:15;22.50;68.70
12477;DHT22;6303;51.504;6.300;2022-09-09T01:02:56;22.50;68.90
12477;DHT22;6303;51.504;6.300;2022-09-09T01:05:34;22.40;69.30
12477;DHT22;6303;51.504;6.300;2022-09-09T01:08:20;22.50;69.10
12477;DHT22;6303;51.504;6.300;2022-09-09T01:10:52;22.40;69.00
12477;DHT22;6303;51.504;6.300;2022-09-09T01:13:29;22.40;69.20
12477;DHT22;6303;51.504;6.300;2022-09-09T01:16:01;22.60;68.50
12477;DHT22;6303;51.504;6.300;2022-09-09T01:18:34;22.60;68.20
12477;DHT22;6303;51.504;6.300;2022-09-09T01:21:09;22.60;68.20
12477;DHT22;6303;51.504;6.300;2022-09-09T01:24:05;22.60;67.90
12477;DHT22;6303;51.504;6.300;2022-09-09T01:26:57;22.80;67.40
12477;DHT22;6303;51.504;6.300;2022-09-09T01:29:26;22.90;66.90
12477;DHT22;6303;51.504;6.300;2022-09-09T01:31:55;22.80;67.10
12477;DHT22;6303;51.504;6.300;2022-09-09T01:34:25;22.70;67.70
12477;DHT22;6303;51.504;6.300;2022-09-09T01:36:57;22.60;68.20
12477;DHT22;6303;51.504;6.300;2022-09-09T01:39:26;22.40;68.80
12477;DHT22;6303;51.504;6.300;2022-09-09T01:42:02;22.40;69.40
12477;DHT22;6303;51.504;6.300;2022-09-09T01:44:31;22.30;69.70
12477;DHT22;6303;51.504;6.300;2022-09-09T01:47:00;22.40;69.70
12477;DHT22;6303;51.504;6.300;2022-09-09T01:49:27;22.50;69.40
12477;DHT22;6303;51.504;6.300;2022-09-09T01:51:56;22.50;69.40
12477;DHT22;6303;51.504;6.300;2022-09-09T01:54:31;22.50;69.40
12477;DHT22;6303;51.504;6.300;2022-09-09T01:57:11;22.50;69.30
12477;DHT22;6303;51.504;6.300;2022-09-09T01:59:53;22.60;69.30
12477;DHT22;6303;51.504;6.300;2022-09-09T02:02:27;22.70;68.90
12477;DHT22;6303;51.504;6.300;2022-09-09T02:05:15;22.70;68.80
12477;DHT22;6303;51.504;6.300;2022-09-09T02:07:48;22.80;68.40
12477;DHT22;6303;51.504;6.300;2022-09-09T02:10:31;22.90;68.00
12477;DHT22;6303;51.504;6.300;2022-09-09T02:13:14;22.80;68.20
12477;DHT22;6303;51.504;6.300;2022-09-09T02:15:45;22.80;68.30
12477;DHT22;6303;51.504;6.300;2022-09-09T02:18:15;23.00;67.80
12477;DHT22;6303;51.504;6.300;2022-09-09T02:20:46;23.20;67.10
12477;DHT22;6303;51.504;6.300;2022-09-09T02:23:15;23.40;66.30
12477;DHT22;6303;51.504;6.300;2022-09-09T02:25:45;23.50;65.70
12477;DHT22;6303;51.504;6.300;2022-09-09T02:28:22;23.70;65.00
12477;DHT22;6303;51.504;6.300;2022-09-09T02:30:52;23.70;64.50
12477;DHT22;6303;51.504;6.300;2022-09-09T02:33:27;23.60;64.70
12477;DHT22;6303;51.504;6.300;2022-09-09T02:35:56;23.40;65.50
12477;DHT22;6303;51.504;6.300;2022-09-09T02:38:32;23.20;67.30
12477;DHT22;6303;51.504;6.300;2022-09-09T02:41:07;23.00;67.20
12477;DHT22;6303;51.504;6.300;2022-09-09T02:43:37;22.90;68.30
12477;DHT22;6303;51.504;6.300;2022-09-09T02:46:16;22.80;68.40
12477;DHT22;6303;51.504;6.300;2022-09-09T02:48:55;22.90;68.30
12477;DHT22;6303;51.504;6.300;2022-09-09T02:51:35;22.90;68.30
12477;DHT22;6303;51.504;6.300;2022-09-09T02:54:13;22.80;68.30
12477;DHT22;6303;51.504;6.300;2022-09-09T02:56:49;23.00;67.90
12477;DHT22;6303;51.504;6.300;2022-09-09T02:59:25;22.90;68.10
12477;DHT22;6303;51.504;6.300;2022-09-09T03:01:53;22.70;68.80
12477;DHT22;6303;51.504;6.300;2022-09-09T03:04:21;22.60;69.30
12477;DHT22;6303;51.504;6.300;2022-09-09T03:06:50;22.60;69.60
12477;DHT22;6303;51.504;6.300;2022-09-09T03:09:20;22.60;69.80
12477;DHT22;6303;51.504;6.300;2022-09-09T03:11:48;22.60;69.80
12477;DHT22;6303;51.504;6.300;2022-09-09T03:14:17;22.60;69.90
12477;DHT22;6303;51.504;6.300;2022-09-09T03:16:48;22.50;70.30
12477;DHT22;6303;51.504;6.300;2022-09-09T03:19:16;22.50;70.60
12477;DHT22;6303;51.504;6.300;2022-09-09T03:21:44;22.40;71.00
12477;DHT22;6303;51.504;6.300;2022-09-09T03:24:11;24.60;73.10
12477;DHT22;6303;51.504;6.300;2022-09-09T03:26:39;22.30;71.90
12477;DHT22;6303;51.504;6.300;2022-09-09T03:29:09;22.40;71.80
12477;DHT22;6303;51.504;6.300;2022-09-09T03:31:39;22.40;72.00
12477;DHT22;6303;51.504;6.300;2022-09-09T03:34:09;22.60;71.30
12477;DHT22;6303;51.504;6.300;2022-09-09T03:36:36;22.70;70.80
12477;DHT22;6303;51.504;6.300;2022-09-09T03:39:04;22.70;70.70
12477;DHT22;6303;51.504;6.300;2022-09-09T03:41:31;22.70;70.80
12477;DHT22;6303;51.504;6.300;2022-09-09T03:44:01;22.70;70.90
12477;DHT22;6303;51.504;6.300;2022-09-09T03:46:33;22.70;71.10
12477;DHT22;6303;51.504;6.300;2022-09-09T03:49:00;22.60;71.70
12477;DHT22;6303;51.504;6.300;2022-09-09T03:51:31;22.50;72.00
12477;DHT22;6303;51.504;6.300;2022-09-09T03:54:03;22.60;72.10
12477;DHT22;6303;51.504;6.300;2022-09-09T03:56:31;22.70;72.10
12477;DHT22;6303;51.504;6.300;2022-09-09T03:58:59;22.60;72.10
12477;DHT22;6303;51.504;6.300;2022-09-09T04:01:27;22.50;72.50
12477;DHT22;6303;51.504;6.300;2022-09-09T04:03:54;22.60;72.70
12477;DHT22;6303;51.504;6.300;2022-09-09T04:06:24;22.60;72.40
12477;DHT22;6303;51.504;6.300;2022-09-09T04:08:53;22.80;71.50
12477;DHT22;6303;51.504;6.300;2022-09-09T04:11:21;23.10;70.50
12477;DHT22;6303;51.504;6.300;2022-09-09T04:13:51;23.30;69.60
12477;DHT22;6303;51.504;6.300;2022-09-09T04:16:18;23.40;69.00
12477;DHT22;6303;51.504;6.300;2022-09-09T04:18:46;23.60;68.30
12477;DHT22;6303;51.504;6.300;2022-09-09T04:21:16;23.70;67.90
12477;DHT22;6303;51.504;6.300;2022-09-09T04:23:43;23.70;67.60
12477;DHT22;6303;51.504;6.300;2022-09-09T04:26:11;23.80;67.10
12477;DHT22;6303;51.504;6.300;2022-09-09T04:28:39;24.00;66.50
12477;DHT22;6303;51.504;6.300;2022-09-09T04:31:15;24.10;66.00
12477;DHT22;6303;51.504;6.300;2022-09-09T04:33:45;24.30;65.30
12477;DHT22;6303;51.504;6.300;2022-09-09T04:36:12;24.40;65.00
12477;DHT22;6303;51.504;6.300;2022-09-09T04:38:39;24.30;65.20
12477;DHT22;6303;51.504;6.300;2022-09-09T04:41:07;24.10;65.90
12477;DHT22;6303;51.504;6.300;2022-09-09T04:43:39;23.90;66.70
12477;DHT22;6303;51.504;6.300;2022-09-09T04:46:08;23.80;67.20
12477;DHT22;6303;51.504;6.300;2022-09-09T04:48:35;23.60;69.00
12477;DHT22;6303;51.504;6.300;2022-09-09T04:51:05;23.60;69.40
12477;DHT22;6303;51.504;6.300;2022-09-09T04:53:33;23.50;69.30
12477;DHT22;6303;51.504;6.300;2022-09-09T04:56:05;23.40;70.00
12477;DHT22;6303;51.504;6.300;2022-09-09T04:58:39;23.20;70.80
12477;DHT22;6303;51.504;6.300;2022-09-09T05:01:10;23.00;71.50
12477;DHT22;6303;51.504;6.300;2022-09-09T05:03:39;22.90;72.30
12477;DHT22;6303;51.504;6.300;2022-09-09T05:06:10;22.90;72.50
12477;DHT22;6303;51.504;6.300;2022-09-09T05:08:39;22.80;73.10
12477;DHT22;6303;51.504;6.300;2022-09-09T05:11:14;22.70;73.60
12477;DHT22;6303;51.504;6.300;2022-09-09T05:13:44;22.70;73.60
12477;DHT22;6303;51.504;6.300;2022-09-09T05:16:12;22.50;74.20
12477;DHT22;6303;51.504;6.300;2022-09-09T05:18:39;22.50;74.50
12477;DHT22;6303;51.504;6.300;2022-09-09T05:21:09;22.50;75.20
12477;DHT22;6303;51.504;6.300;2022-09-09T05:23:36;22.50;75.00
12477;DHT22;6303;51.504;6.300;2022-09-09T05:26:04;22.40;75.10
12477;DHT22;6303;51.504;6.300;2022-09-09T05:28:34;22.20;76.00
12477;DHT22;6303;51.504;6.300;2022-09-09T05:31:04;22.10;77.00
12477;DHT22;6303;51.504;6.300;2022-09-09T05:33:34;22.10;77.70
12477;DHT22;6303;51.504;6.300;2022-09-09T05:36:03;22.00;78.50
12477;DHT22;6303;51.504;6.300;2022-09-09T05:38:31;22.10;78.50
12477;DHT22;6303;51.504;6.300;2022-09-09T05:41:00;22.10;78.60
12477;DHT22;6303;51.504;6.300;2022-09-09T05:43:28;22.20;78.20
12477;DHT22;6303;51.504;6.300;2022-09-09T05:46:03;22.10;78.40
12477;DHT22;6303;51.504;6.300;2022-09-09T05:48:32;22.00;79.10
12477;DHT22;6303;51.504;6.300;2022-09-09T05:51:01;22.20;78.40
12477;DHT22;6303;51.504;6.300;2022-09-09T05:53:30;22.10;78.50
12477;DHT22;6303;51.504;6.300;2022-09-09T05:56:01;22.10;79.20
12477;DHT22;6303;51.504;6.300;2022-09-09T05:58:30;22.00;79.20
12477;DHT22;6303;51.504;6.300;2022-09-09T06:01:03;22.20;78.70
12477;DHT22;6303;51.504;6.300;2022-09-09T06:03:31;22.20;78.50
12477;DHT22;6303;51.504;6.300;2022-09-09T06:05:59;22.30;78.40
12477;DHT22;6303;51.504;6.300;2022-09-09T06:08:27;22.20;79.50
12477;DHT22;6303;51.504;6.300;2022-09-09T06:11:01;22.30;78.50
12477;DHT22;6303;51.504;6.300;2022-09-09T06:13:30;22.20;78.20
12477;DHT22;6303;51.504;6.300;2022-09-09T06:15:58;22.20;78.90
12477;DHT22;6303;51.504;6.300;2022-09-09T06:18:27;22.20;78.40
12477;DHT22;6303;51.504;6.300;2022-09-09T06:20:56;19.90;77.40
12477;DHT22;6303;51.504;6.300;2022-09-09T06:23:24;22.20;79.20
12477;DHT22;6303;51.504;6.300;2022-09-09T06:26:00;22.40;78.20
12477;DHT22;6303;51.504;6.300;2022-09-09T06:28:27;22.70;76.90
12477;DHT22;6303;51.504;6.300;2022-09-09T06:30:57;22.60;77.00
12477;DHT22;6303;51.504;6.300;2022-09-09T06:33:26;22.40;78.20
12477;DHT22;6303;51.504;6.300;2022-09-09T06:35:54;22.30;78.50
12477;DHT22;6303;51.504;6.300;2022-09-09T06:38:23;22.30;78.50
12477;DHT22;6303;51.504;6.300;2022-09-09T06:40:52;22.40;78.30
12477;DHT22;6303;51.504;6.300;2022-09-09T06:43:21;22.40;78.50
12477;DHT22;6303;51.504;6.300;2022-09-09T06:45:54;22.30;78.80
12477;DHT22;6303;51.504;6.300;2022-09-09T06:48:21;22.30;78.10
12477;DHT22;6303;51.504;6.300;2022-09-09T06:50:50;22.00;79.60
12477;DHT22;6303;51.504;6.300;2022-09-09T06:53:18;21.90;80.60
12477;DHT22;6303;51.504;6.300;2022-09-09T06:55:46;21.90;80.70
12477;DHT22;6303;51.504;6.300;2022-09-09T06:58:14;22.00;80.60
12477;DHT22;6303;51.504;6.300;2022-09-09T07:00:41;21.90;81.10
12477;DHT22;6303;51.504;6.300;2022-09-09T07:03:09;22.30;81.00
12477;DHT22;6303;51.504;6.300;2022-09-09T07:05:37;22.00;80.80
12477;DHT22;6303;51.504;6.300;2022-09-09T07:08:05;22.30;78.50
12477;DHT22;6303;51.504;6.300;2022-09-09T07:10:33;22.30;79.00
12477;DHT22;6303;51.504;6.300;2022-09-09T07:13:00;22.70;77.10
12477;DHT22;6303;51.504;6.300;2022-09-09T07:15:28;22.70;77.00
12477;DHT22;6303;51.504;6.300;2022-09-09T07:17:55;22.60;77.60
12477;DHT22;6303;51.504;6.300;2022-09-09T07:20:27;22.70;76.70
12477;DHT22;6303;51.504;6.300;2022-09-09T07:22:55;22.80;76.40
12477;DHT22;6303;51.504;6.300;2022-09-09T07:25:26;22.90;75.40
12477;DHT22;6303;51.504;6.300;2022-09-09T07:27:54;22.70;76.30
12477;DHT22;6303;51.504;6.300;2022-09-09T07:30:22;22.70;76.40
12477;DHT22;6303;51.504;6.300;2022-09-09T07:32:51;22.60;76.90
12477;DHT22;6303;51.504;6.300;2022-09-09T07:35:18;22.80;76.40
12477;DHT22;6303;51.504;6.300;2022-09-09T07:37:45;22.90;76.00
12477;DHT22;6303;51.504;6.300;2022-09-09T07:40:13;23.10;75.50
12477;DHT22;6303;51.504;6.300;2022-09-09T07:42:42;23.10;74.30
12477;DHT22;6303;51.504;6.300;2022-09-09T07:45:09;23.10;74.10
12477;DHT22;6303;51.504;6.300;2022-09-09T07:47:36;23.10;74.20
12477;DHT22;6303;51.504;6.300;2022-09-09T07:50:04;23.10;74.20
12477;DHT22;6303;51.504;6.300;2022-09-09T07:52:32;23.20;73.20
12477;DHT22;6303;51.504;6.300;2022-09-09T07:55:03;23.30;72.30
12477;DHT22;6303;51.504;6.300;2022-09-09T07:57:32;23.10;73.50
12477;DHT22;6303;51.504;6.300;2022-09-09T08:00:02;22.90;74.50
12477;DHT22;6303;51.504;6.300;2022-09-09T08:02:38;23.10;73.90
12477;DHT22;6303;51.504;6.300;2022-09-09T08:05:05;23.40;71.70
12477;DHT22;6303;51.504;6.300;2022-09-09T08:07:33;23.30;71.80
12477;DHT22;6303;51.504;6.300;2022-09-09T08:10:01;23.30;70.90
12477;DHT22;6303;51.504;6.300;2022-09-09T08:12:30;23.30;71.70
12477;DHT22;6303;51.504;6.300;2022-09-09T08:14:58;23.20;71.50
12477;DHT22;6303;51.504;6.300;2022-09-09T08:17:30;23.20;71.60
12477;DHT22;6303;51.504;6.300;2022-09-09T08:20:02;23.40;71.10
12477;DHT22;6303;51.504;6.300;2022-09-09T08:22:31;23.70;69.50
12477;DHT22;6303;51.504;6.300;2022-09-09T08:24:58;23.90;68.90
12477;DHT22;6303;51.504;6.300;2022-09-09T08:27:26;23.90;68.00
12477;DHT22;6303;51.504;6.300;2022-09-09T08:29:54;23.90;68.50
12477;DHT22;6303;51.504;6.300;2022-09-09T08:32:22;24.10;67.50
12477;DHT22;6303;51.504;6.300;2022-09-09T08:34:51;24.20;66.40
12477;DHT22;6303;51.504;6.300;2022-09-09T08:37:21;24.30;66.20
12477;DHT22;6303;51.504;6.300;2022-09-09T08:39:48;24.10;66.20
12477;DHT22;6303;51.504;6.300;2022-09-09T08:42:31;24.00;67.00
12477;DHT22;6303;51.504;6.300;2022-09-09T08:45:18;23.90;67.40
12477;DHT22;6303;51.504;6.300;2022-09-09T08:48:01;23.70;67.80
12477;DHT22;6303;51.504;6.300;2022-09-09T08:50:35;23.60;68.10
12477;DHT22;6303;51.504;6.300;2022-09-09T08:53:22;23.80;67.30
12477;DHT22;6303;51.504;6.300;2022-09-09T08:55:54;24.00;66.40
12477;DHT22;6303;51.504;6.300;2022-09-09T08:58:33;23.90;66.30
12477;DHT22;6303;51.504;6.300;2022-09-09T09:01:20;23.90;66.50
12477;DHT22;6303;51.504;6.300;2022-09-09T09:04:00;24.20;65.40
12477;DHT22;6303;51.504;6.300;2022-09-09T09:06:40;24.00;65.50
12477;DHT22;6303;51.504;6.300;2022-09-09T09:09:16;23.70;66.20
12477;DHT22;6303;51.504;6.300;2022-09-09T09:11:48;23.80;66.20
12477;DHT22;6303;51.504;6.300;2022-09-09T09:14:19;24.00;65.70
12477;DHT22;6303;51.504;6.300;2022-09-09T09:16:53;24.20;65.10
12477;DHT22;6303;51.504;6.300;2022-09-09T09:19:23;24.60;63.70
12477;DHT22;6303;51.504;6.300;2022-09-09T09:21:59;24.70;63.20
12477;DHT22;6303;51.504;6.300;2022-09-09T09:24:40;25.00;62.00
12477;DHT22;6303;51.504;6.300;2022-09-09T09:27:13;24.90;61.60
12477;DHT22;6303;51.504;6.300;2022-09-09T09:29:46;24.70;61.70
12477;DHT22;6303;51.504;6.300;2022-09-09T09:32:18;24.40;62.60
12477;DHT22;6303;51.504;6.300;2022-09-09T09:34:49;24.10;63.30
12477;DHT22;6303;51.504;6.300;2022-09-09T09:37:26;24.10;63.90
12477;DHT22;6303;51.504;6.300;2022-09-09T09:39:54;24.10;63.10
12477;DHT22;6303;51.504;6.300;2022-09-09T09:42:21;24.10;63.20
12477;DHT22;6303;51.504;6.300;2022-09-09T09:44:50;23.80;64.10
12477;DHT22;6303;51.504;6.300;2022-09-09T09:47:21;22.90;63.90
12477;DHT22;6303;51.504;6.300;2022-09-09T09:50:03;23.60;64.70
12477;DHT22;6303;51.504;6.300;2022-09-09T09:52:41;23.80;63.80
12477;DHT22;6303;51.504;6.300;2022-09-09T09:55:13;24.20;62.70
12477;DHT22;6303;51.504;6.300;2022-09-09T09:57:43;24.00;63.20
12477;DHT22;6303;51.504;6.300;2022-09-09T10:00:14;23.90;63.10
12477;DHT22;6303;51.504;6.300;2022-09-09T10:02:46;24.10;62.50
12477;DHT22;6303;51.504;6.300;2022-09-09T10:05:21;24.20;62.40
12477;DHT22;6303;51.504;6.300;2022-09-09T10:08:02;24.10;62.10
12477;DHT22;6303;51.504;6.300;2022-09-09T10:10:42;23.90;62.60
12477;DHT22;6303;51.504;6.300;2022-09-09T10:13:15;23.80;63.00
12477;DHT22;6303;51.504;6.300;2022-09-09T10:15:51;23.60;63.40
12477;DHT22;6303;51.504;6.300;2022-09-09T10:18:39;23.50;64.30
12477;DHT22;6303;51.504;6.300;2022-09-09T10:21:18;23.70;64.10
12477;DHT22;6303;51.504;6.300;2022-09-09T10:26:45;24.00;63.10
12477;DHT22;6303;51.504;6.300;2022-09-09T10:29:34;23.90;63.10
12477;DHT22;6303;51.504;6.300;2022-09-09T10:32:31;23.50;64.50
12477;DHT22;6303;51.504;6.300;2022-09-09T10:35:04;23.40;64.70
12477;DHT22;6303;51.504;6.300;2022-09-09T10:37:45;23.40;65.20
12477;DHT22;6303;51.504;6.300;2022-09-09T10:40:23;23.50;65.00
12477;DHT22;6303;51.504;6.300;2022-09-09T10:42:55;23.30;65.50
12477;DHT22;6303;51.504;6.300;2022-09-09T10:45:30;23.30;65.40
12477;DHT22;6303;51.504;6.300;2022-09-09T10:48:16;23.30;65.60
12477;DHT22;6303;51.504;6.300;2022-09-09T10:50:52;23.40;65.60
12477;DHT22;6303;51.504;6.300;2022-09-09T10:53:33;23.70;64.50
12477;DHT22;6303;51.504;6.300;2022-09-09T10:56:06;23.90;64.00
12477;DHT22;6303;51.504;6.300;2022-09-09T10:58:39;23.90;63.60
12477;DHT22;6303;51.504;6.300;2022-09-09T11:01:15;23.70;63.80
12477;DHT22;6303;51.504;6.300;2022-09-09T11:03:46;23.50;64.50
12477;DHT22;6303;51.504;6.300;2022-09-09T11:06:19;23.60;64.70
12477;DHT22;6303;51.504;6.300;2022-09-09T11:08:47;23.90;63.90
12477;DHT22;6303;51.504;6.300;2022-09-09T11:11:21;24.00;63.50
12477;DHT22;6303;51.504;6.300;2022-09-09T11:13:55;24.10;63.20
12477;DHT22;6303;51.504;6.300;2022-09-09T11:16:28;24.00;64.00
12477;DHT22;6303;51.504;6.300;2022-09-09T11:19:01;23.80;66.20
12477;DHT22;6303;51.504;6.300;2022-09-09T11:21:34;24.00;65.90
12477;DHT22;6303;51.504;6.300;2022-09-09T11:24:06;24.40;65.40
12477;DHT22;6303;51.504;6.300;2022-09-09T11:26:39;24.70;64.60
12477;DHT22;6303;51.504;6.300;2022-09-09T11:29:24;25.00;63.50
12477;DHT22;6303;51.504;6.300;2022-09-09T11:32:07;25.30;63.30
12477;DHT22;6303;51.504;6.300;2022-09-09T11:34:50;25.50;63.70
12477;DHT22;6303;51.504;6.300;2022-09-09T11:37:45;25.60;63.40
12477;DHT22;6303;51.504;6.300;2022-09-09T11:40:18;25.60;63.30
12477;DHT22;6303;51.504;6.300;2022-09-09T11:42:48;25.80;63.10
12477;DHT22;6303;51.504;6.300;2022-09-09T11:45:22;25.90;62.70
12477;DHT22;6303;51.504;6.300;2022-09-09T11:47:52;25.90;62.80
12477;DHT22;6303;51.504;6.300;2022-09-09T11:50:31;25.90;62.50
12477;DHT22;6303;51.504;6.300;2022-09-09T11:53:19;26.00;62.20
12477;DHT22;6303;51.504;6.300;2022-09-09T11:55:59;26.10;61.70
12477;DHT22;6303;51.504;6.300;2022-09-09T11:58:31;26.10;61.80
12477;DHT22;6303;51.504;6.300;2022-09-09T12:01:01;26.10;62.00
12477;DHT22;6303;51.504;6.300;2022-09-09T12:03:41;25.90;62.80
12477;DHT22;6303;51.504;6.300;2022-09-09T12:06:13;25.70;63.20
12477;DHT22;6303;51.504;6.300;2022-09-09T12:08:45;25.60;63.30
12477;DHT22;6303;51.504;6.300;2022-09-09T12:11:24;25.60;64.10
12477;DHT22;6303;51.504;6.300;2022-09-09T12:13:57;25.50;64.10
12477;DHT22;6303;51.504;6.300;2022-09-09T12:16:31;25.50;64.00
12477;DHT22;6303;51.504;6.300;2022-09-09T12:19:13;25.70;63.80
12477;DHT22;6303;51.504;6.300;2022-09-09T12:21:47;25.80;63.30
12477;DHT22;6303;51.504;6.300;2022-09-09T12:24:23;25.80;63.30
12477;DHT22;6303;51.504;6.300;2022-09-09T12:26:58;25.50;64.70
12477;DHT22;6303;51.504;6.300;2022-09-09T12:29:41;25.20;66.30
12477;DHT22;6303;51.504;6.300;2022-09-09T12:32:14;25.10;66.70
12477;DHT22;6303;51.504;6.300;2022-09-09T12:34:48;24.80;68.20
12477;DHT22;6303;51.504;6.300;2022-09-09T12:37:26;24.50;71.00
12477;DHT22;6303;51.504;6.300;2022-09-09T12:39:56;24.30;73.90
12477;DHT22;6303;51.504;6.300;2022-09-09T12:42:24;24.20;73.90
12477;DHT22;6303;51.504;6.300;2022-09-09T12:44:57;24.40;73.90
12477;DHT22;6303;51.504;6.300;2022-09-09T12:47:33;24.20;76.30
12477;DHT22;6303;51.504;6.300;2022-09-09T12:50:03;23.80;77.80
12477;DHT22;6303;51.504;6.300;2022-09-09T12:52:32;23.90;77.50
12477;DHT22;6303;51.504;6.300;2022-09-09T12:55:05;23.90;76.70
12477;DHT22;6303;51.504;6.300;2022-09-09T12:57:36;24.00;76.10
12477;DHT22;6303;51.504;6.300;2022-09-09T13:00:11;23.00;75.50
12477;DHT22;6303;51.504;6.300;2022-09-09T13:02:46;24.00;76.40
12477;DHT22;6303;51.504;6.300;2022-09-09T13:05:17;24.40;74.70
12477;DHT22;6303;51.504;6.300;2022-09-09T13:07:44;24.20;74.60
12477;DHT22;6303;51.504;6.300;2022-09-09T13:10:14;24.50;73.00
12477;DHT22;6303;51.504;6.300;2022-09-09T13:12:42;24.70;71.60
12477;DHT22;6303;51.504;6.300;2022-09-09T13:15:20;24.70;71.30
12477;DHT22;6303;51.504;6.300;2022-09-09T13:17:56;24.70;71.40
12477;DHT22;6303;51.504;6.300;2022-09-09T13:20:24;24.60;72.30
12477;DHT22;6303;51.504;6.300;2022-09-09T13:22:53;24.40;73.40
12477;DHT22;6303;51.504;6.300;2022-09-09T13:25:23;24.20;74.50
12477;DHT22;6303;51.504;6.300;2022-09-09T13:27:55;23.90;75.20
12477;DHT22;6303;51.504;6.300;2022-09-09T13:30:26;23.80;74.60
12477;DHT22;6303;51.504;6.300;2022-09-09T13:33:21;23.60;75.60
12477;DHT22;6303;51.504;6.300;2022-09-09T13:35:50;23.50;76.80
12477;DHT22;6303;51.504;6.300;2022-09-09T13:38:19;23.90;75.50
12477;DHT22;6303;51.504;6.300;2022-09-09T13:40:57;23.90;74.10
12477;DHT22;6303;51.504;6.300;2022-09-09T13:43:28;23.80;74.00
12477;DHT22;6303;51.504;6.300;2022-09-09T13:45:59;23.60;74.60
12477;DHT22;6303;51.504;6.300;2022-09-09T13:48:27;23.60;75.00
12477;DHT22;6303;51.504;6.300;2022-09-09T13:50:57;23.80;74.10
12477;DHT22;6303;51.504;6.300;2022-09-09T13:53:25;24.20;72.80
12477;DHT22;6303;51.504;6.300;2022-09-09T13:55:52;24.60;70.80
12477;DHT22;6303;51.504;6.300;2022-09-09T13:58:20;24.80;69.10
12477;DHT22;6303;51.504;6.300;2022-09-09T14:00:48;25.00;68.50
12477;DHT22;6303;51.504;6.300;2022-09-09T14:03:17;25.10;66.80
12477;DHT22;6303;51.504;6.300;2022-09-09T14:05:44;25.30;65.70
12477;DHT22;6303;51.504;6.300;2022-09-09T14:08:20;25.20;65.60
12477;DHT22;6303;51.504;6.300;2022-09-09T14:10:47;25.20;65.00
12477;DHT22;6303;51.504;6.300;2022-09-09T14:13:14;24.70;66.30
12477;DHT22;6303;51.504;6.300;2022-09-09T14:15:42;24.30;67.80
12477;DHT22;6303;51.504;6.300;2022-09-09T14:18:11;24.30;67.90
12477;DHT22;6303;51.504;6.300;2022-09-09T14:20:41;24.40;67.80
12477;DHT22;6303;51.504;6.300;2022-09-09T14:23:11;24.10;69.20
12477;DHT22;6303;51.504;6.300;2022-09-09T14:25:41;23.80;71.30
12477;DHT22;6303;51.504;6.300;2022-09-09T14:28:10;23.80;71.70
12477;DHT22;6303;51.504;6.300;2022-09-09T14:30:38;24.00;71.30
12477;DHT22;6303;51.504;6.300;2022-09-09T14:33:05;24.00;71.20
12477;DHT22;6303;51.504;6.300;2022-09-09T14:35:32;24.20;71.30
12477;DHT22;6303;51.504;6.300;2022-09-09T14:38:01;24.00;72.30
12477;DHT22;6303;51.504;6.300;2022-09-09T14:40:28;23.60;74.20
12477;DHT22;6303;51.504;6.300;2022-09-09T14:42:56;23.70;74.00
12477;DHT22;6303;51.504;6.300;2022-09-09T14:45:25;23.60;75.40
12477;DHT22;6303;51.504;6.300;2022-09-09T14:47:52;23.60;75.30
12477;DHT22;6303;51.504;6.300;2022-09-09T14:50:20;23.80;74.40
12477;DHT22;6303;51.504;6.300;2022-09-09T14:52:48;24.00;74.10
12477;DHT22;6303;51.504;6.300;2022-09-09T14:55:17;24.00;73.10
12477;DHT22;6303;51.504;6.300;2022-09-09T14:57:44;23.90;73.60
12477;DHT22;6303;51.504;6.300;2022-09-09T15:00:12;23.70;74.60
12477;DHT22;6303;51.504;6.300;2022-09-09T15:02:40;23.70;75.20
12477;DHT22;6303;51.504;6.300;2022-09-09T15:05:08;23.80;75.60
12477;DHT22;6303;51.504;6.300;2022-09-09T15:07:36;23.90;75.00
12477;DHT22;6303;51.504;6.300;2022-09-09T15:10:04;24.20;73.00
12477;DHT22;6303;51.504;6.300;2022-09-09T15:12:33;24.50;71.70
12477;DHT22;6303;51.504;6.300;2022-09-09T15:15:02;24.60;70.90
12477;DHT22;6303;51.504;6.300;2022-09-09T15:17:31;24.70;70.30
12477;DHT22;6303;51.504;6.300;2022-09-09T15:19:58;24.60;70.90
12477;DHT22;6303;51.504;6.300;2022-09-09T15:22:25;24.60;71.40
12477;DHT22;6303;51.504;6.300;2022-09-09T15:24:52;24.60;71.10
12477;DHT22;6303;51.504;6.300;2022-09-09T15:27:20;24.60;72.00
12477;DHT22;6303;51.504;6.300;2022-09-09T15:29:50;24.40;72.40
12477;DHT22;6303;51.504;6.300;2022-09-09T15:32:18;24.30;72.40
12477;DHT22;6303;51.504;6.300;2022-09-09T15:34:45;24.20;73.60
12477;DHT22;6303;51.504;6.300;2022-09-09T15:37:12;24.40;72.30
12477;DHT22;6303;51.504;6.300;2022-09-09T15:39:39;24.60;71.50
12477;DHT22;6303;51.504;6.300;2022-09-09T15:42:07;24.50;72.20
12477;DHT22;6303;51.504;6.300;2022-09-09T15:44:40;24.50;72.20
12477;DHT22;6303;51.504;6.300;2022-09-09T15:47:11;24.60;72.10
12477;DHT22;6303;51.504;6.300;2022-09-09T15:49:39;24.80;71.20
12477;DHT22;6303;51.504;6.300;2022-09-09T15:52:06;24.70;72.30
12477;DHT22;6303;51.504;6.300;2022-09-09T15:54:34;24.70;72.30
12477;DHT22;6303;51.504;6.300;2022-09-09T15:57:04;24.80;72.00
12477;DHT22;6303;51.504;6.300;2022-09-09T15:59:32;24.90;71.70
12477;DHT22;6303;51.504;6.300;2022-09-09T16:02:00;25.00;71.40
12477;DHT22;6303;51.504;6.300;2022-09-09T16:04:29;25.10;70.30
12477;DHT22;6303;51.504;6.300;2022-09-09T16:06:58;25.20;70.40
12477;DHT22;6303;51.504;6.300;2022-09-09T16:09:27;25.20;70.70
12477;DHT22;6303;51.504;6.300;2022-09-09T16:11:56;25.20;70.30
12477;DHT22;6303;51.504;6.300;2022-09-09T16:14:24;25.20;70.50
12477;DHT22;6303;51.504;6.300;2022-09-09T16:16:51;25.10;71.20